Time;durP1;ratioP1;P1;durP2;ratioP2;P2;SDS_P1;SDS_P2;PMS_P1;PMS_P2;Temp;Humidity;BMP_temperature;BMP_pressure;BME280_temperature;BME280_humidity;BME280_pressure;Samples;Min_cycle;Max_cycle;Signal;HPM_P1;HPM_P2
2023/05/30 00:00:36;;;;;;;13.73;3.67;;;;;;;17.52;64.77;101073.53;4993795;28;20401;-82
2023/05/30 00:03:01;;;;;;;17.37;3.97;;;;;;;17.46;64.89;101066.31;4996078;28;20762;-82
2023/05/30 00:05:26;;;;;;;14.25;4.40;;;;;;;17.69;64.41;101068.56;4995661;28;20385;-82
2023/05/30 00:07:52;;;;;;;14.33;4.13;;;;;;;17.74;63.90;101068.75;4994300;28;20386;-82
2023/05/30 00:10:17;;;;;;;13.27;3.80;;;;;;;17.60;64.37;101064.44;4994319;28;20378;-81
2023/05/30 00:12:46;;;;;;;10.07;3.60;;;;;;;17.46;65.05;101068.97;4994744;28;20411;-82
2023/05/30 00:15:12;;;;;;;14.25;3.95;;;;;;;17.44;65.06;101070.22;4993407;28;20382;-82
2023/05/30 00:17:38;;;;;;;13.05;3.90;;;;;;;17.50;65.07;101072.91;4993851;28;20394;-81
2023/05/30 00:20:04;;;;;;;10.48;3.75;;;;;;;17.50;64.71;101058.66;4996925;28;20684;-82
2023/05/30 00:22:30;;;;;;;10.32;3.60;;;;;;;17.52;64.67;101064.66;4997526;28;20370;-81
2023/05/30 00:24:59;;;;;;;10.00;3.73;;;;;;;17.38;65.23;101061.97;4997214;28;20374;-83
2023/05/30 00:27:25;;;;;;;9.18;3.63;;;;;;;17.47;65.13;101059.91;4997722;28;20461;-81
2023/05/30 00:29:51;;;;;;;9.95;3.60;;;;;;;17.45;65.31;101067.34;4997415;28;20832;-82
2023/05/30 00:32:16;;;;;;;11.63;3.90;;;;;;;17.42;65.31;101056.22;4997371;28;20479;-82
2023/05/30 00:34:42;;;;;;;12.77;3.40;;;;;;;17.49;65.28;101060.53;4999107;28;20378;-81
2023/05/30 00:37:08;;;;;;;9.20;3.77;;;;;;;17.54;65.08;101065.28;4998587;28;20412;-81
2023/05/30 00:39:34;;;;;;;9.68;3.05;;;;;;;17.56;65.10;101064.03;4997860;28;20386;-82
2023/05/30 00:42:00;;;;;;;11.57;3.83;;;;;;;17.63;64.46;101065.88;4998059;28;20417;-81
2023/05/30 00:44:26;;;;;;;8.50;3.65;;;;;;;17.72;64.58;101059.28;4998691;28;20385;-82
2023/05/30 00:46:52;;;;;;;7.97;3.47;;;;;;;17.87;64.05;101075.97;4999149;28;20414;-82
2023/05/30 00:49:18;;;;;;;10.70;3.70;;;;;;;17.76;64.22;101068.56;4999619;28;20378;-82
2023/05/30 00:51:44;;;;;;;8.30;3.40;;;;;;;17.71;64.59;101074.53;4997988;28;20903;-82
2023/05/30 00:54:10;;;;;;;13.85;4.10;;;;;;;17.65;64.81;101071.88;4997347;28;20390;-81
2023/05/30 00:56:36;;;;;;;9.43;3.60;;;;;;;17.80;64.41;101071.63;4998604;28;20723;-81
2023/05/30 00:59:02;;;;;;;8.80;3.40;;;;;;;17.71;64.52;101069.16;4998743;28;20386;-82
2023/05/30 01:01:29;;;;;;;10.60;3.58;;;;;;;17.70;64.60;101066.69;4999000;28;20484;-82
2023/05/30 01:03:56;;;;;;;9.05;3.72;;;;;;;17.74;64.59;101068.75;4998647;28;20735;-82
2023/05/30 01:06:27;;;;;;;8.85;4.07;;;;;;;17.74;64.59;101063.41;5003019;28;20413;-81
2023/05/30 01:08:52;;;;;;;12.23;3.70;;;;;;;17.68;64.85;101063.41;5014541;28;20389;-81
2023/05/30 01:11:50;;;;;;;11.20;3.60;;;;;;;17.71;64.56;101065.66;4996806;28;20452;-82
2023/05/30 01:14:36;;;;;;;6.70;3.22;;;;;;;17.60;64.78;101061.75;4987033;28;20777;-82
2023/05/30 01:17:13;;;;;;;13.90;3.72;;;;;;;17.55;64.74;101059.69;4994233;28;20571;-82
2023/05/30 01:20:05;;;;;;;7.32;3.58;;;;;;;17.48;65.13;101068.78;4995250;28;20422;-82
2023/05/30 01:22:50;;;;;;;9.85;3.65;;;;;;;17.37;65.22;101060.31;4994696;28;20862;-82
2023/05/30 01:25:35;;;;;;;9.77;3.40;;;;;;;17.33;65.60;101075.16;4997216;28;20378;-82
2023/05/30 01:28:29;;;;;;;9.20;3.60;;;;;;;17.38;65.33;101072.69;4997631;28;20377;-82
2023/05/30 01:30:57;;;;;;;9.13;3.47;;;;;;;17.40;65.19;101061.78;4994911;28;20398;-82
2023/05/30 01:33:23;;;;;;;10.77;3.60;;;;;;;17.46;65.15;101066.31;4996744;28;20415;-83
2023/05/30 01:35:49;;;;;;;12.18;4.05;;;;;;;17.35;65.53;101066.94;4997863;28;20385;-83
2023/05/30 01:38:15;;;;;;;9.13;3.72;;;;;;;17.31;65.56;101060.34;4999037;28;20396;-83
2023/05/30 01:40:46;;;;;;;9.37;3.90;;;;;;;17.39;65.37;101069.00;4998549;28;20385;-82
2023/05/30 01:43:30;;;;;;;9.25;3.92;;;;;;;17.44;65.12;101070.22;4998038;28;20468;-82
2023/05/30 01:46:01;;;;;;;9.23;3.92;;;;;;;17.51;64.80;101065.69;4996289;28;20421;-82
2023/05/30 01:48:46;;;;;;;10.60;3.70;;;;;;;17.58;64.60;101075.38;4996999;28;20393;-83
2023/05/30 01:51:19;;;;;;;10.50;4.20;;;;;;;17.64;64.33;101071.03;4996794;28;20750;-83
2023/05/30 01:53:54;;;;;;;7.38;3.80;;;;;;;17.67;64.02;101065.25;4997144;28;20393;-82
2023/05/30 01:56:21;;;;;;;11.25;4.13;;;;;;;17.74;63.81;101078.66;4997170;28;20924;-82
2023/05/30 01:58:49;;;;;;;14.27;4.38;;;;;;;17.57;63.97;101064.84;4997067;28;20381;-83
2023/05/30 02:01:15;;;;;;;11.13;4.00;;;;;;;17.43;64.63;101065.88;4998554;28;20779;-82
2023/05/30 02:03:41;;;;;;;9.27;3.95;;;;;;;17.35;64.75;101070.44;4998529;28;20370;-81
2023/05/30 02:06:06;;;;;;;11.23;3.60;;;;;;;17.36;64.99;101072.09;4998149;28;20382;-82
2023/05/30 02:08:32;;;;;;;14.60;3.80;;;;;;;17.33;64.96;101072.50;4998032;28;20393;-81
2023/05/30 02:10:57;;;;;;;14.10;4.03;;;;;;;17.35;64.95;101067.75;5014460;28;20382;-82
2023/05/30 02:13:23;;;;;;;10.57;3.80;;;;;;;17.33;64.99;101071.69;4999027;28;20417;-82
2023/05/30 02:15:48;;;;;;;12.98;3.88;;;;;;;17.46;64.68;101087.75;4998778;28;20512;-82
2023/05/30 02:18:14;;;;;;;12.07;4.07;;;;;;;17.54;64.34;101078.69;5006611;28;20471;-83
2023/05/30 02:20:39;;;;;;;7.88;3.80;;;;;;;17.61;63.87;101071.47;5017909;28;20380;-82
2023/05/30 02:23:05;;;;;;;9.07;4.20;;;;;;;17.75;63.44;101066.88;5018213;28;20403;-82
2023/05/30 02:25:30;;;;;;;10.45;4.30;;;;;;;17.87;62.87;101070.63;5017120;28;20416;-82
2023/05/30 02:27:56;;;;;;;10.13;3.93;;;;;;;17.90;62.64;101064.84;5016033;28;20458;-82
2023/05/30 02:30:21;;;;;;;11.50;4.32;;;;;;;17.95;62.47;101069.56;5016769;28;20454;-82
2023/05/30 02:32:47;;;;;;;10.80;3.87;;;;;;;17.97;62.11;101080.94;5016395;28;20415;-82
2023/05/30 02:35:13;;;;;;;13.20;4.80;;;;;;;17.96;62.31;101077.41;5016770;28;20459;-82
2023/05/30 02:37:39;;;;;;;8.73;4.00;;;;;;;18.02;62.25;101082.97;5016543;28;20713;-82
2023/05/30 02:40:09;;;;;;;10.90;4.20;;;;;;;18.01;62.25;101075.97;5016619;28;20376;-82
2023/05/30 02:42:35;;;;;;;10.88;4.30;;;;;;;18.01;61.96;101079.47;5017080;28;20442;-81
2023/05/30 02:45:00;;;;;;;10.90;4.45;;;;;;;18.03;62.06;101088.13;5015722;28;20404;-82
2023/05/30 02:47:26;;;;;;;11.57;4.50;;;;;;;18.02;62.08;101093.69;5016045;28;20399;-82
2023/05/30 02:49:51;;;;;;;10.82;4.38;;;;;;;18.05;61.80;101090.59;5015527;28;20741;-82
2023/05/30 02:52:19;;;;;;;15.83;4.40;;;;;;;18.09;61.75;101095.31;5015779;28;20451;-82
2023/05/30 02:54:46;;;;;;;12.48;4.30;;;;;;;18.02;61.81;101096.38;5015139;28;20881;-82
2023/05/30 02:57:12;;;;;;;6.75;3.92;;;;;;;18.06;61.70;101098.44;5016290;28;20792;-82
2023/05/30 02:59:37;;;;;;;10.87;4.57;;;;;;;18.09;61.59;101099.88;5015983;28;20841;-82
2023/05/30 03:02:03;;;;;;;13.75;4.30;;;;;;;18.09;61.72;101108.72;5015422;28;20376;-82
2023/05/30 03:04:28;;;;;;;12.30;4.33;;;;;;;18.07;61.90;101107.31;5013515;28;20941;-84
2023/05/30 03:06:54;;;;;;;10.15;4.22;;;;;;;18.11;61.81;101098.63;5009661;28;20432;-82
2023/05/30 03:09:20;;;;;;;9.23;4.30;;;;;;;18.10;62.10;101107.72;5002731;28;20542;-82
2023/05/30 03:11:45;;;;;;;10.20;4.65;;;;;;;17.97;62.28;101091.66;5012496;28;20443;-82
2023/05/30 03:14:11;;;;;;;13.02;4.90;;;;;;;17.82;62.97;101099.06;5013421;28;20387;-81
2023/05/30 03:16:36;;;;;;;11.90;5.00;;;;;;;17.93;62.91;101101.97;5012601;28;20380;-82
2023/05/30 03:19:01;;;;;;;10.80;4.70;;;;;;;18.03;62.49;101096.19;5012815;28;20380;-83
2023/05/30 03:21:27;;;;;;;11.10;4.80;;;;;;;18.00;62.49;101103.81;5012346;28;20446;-81
2023/05/30 03:23:52;;;;;;;14.03;5.10;;;;;;;17.89;62.94;101099.91;5012795;28;20690;-81
2023/05/30 03:26:18;;;;;;;10.50;4.60;;;;;;;17.76;63.62;101106.09;5012096;28;20459;-81
2023/05/30 03:28:44;;;;;;;12.52;5.03;;;;;;;17.74;63.52;101100.94;5014470;28;20801;-82
2023/05/30 03:31:11;;;;;;;10.48;4.97;;;;;;;17.86;63.25;101106.53;5014606;28;20451;-82
2023/05/30 03:33:37;;;;;;;15.73;5.00;;;;;;;18.00;62.59;101101.13;5012681;28;20431;-82
2023/05/30 03:36:02;;;;;;;16.57;5.57;;;;;;;18.13;62.29;101103.78;5014509;28;20373;-81
2023/05/30 03:38:28;;;;;;;16.67;4.78;;;;;;;18.24;62.34;101103.16;5014522;28;20471;-81
2023/05/30 03:40:53;;;;;;;15.37;4.90;;;;;;;18.35;62.08;101098.97;5012936;28;20410;-81
2023/05/30 03:43:19;;;;;;;15.57;5.00;;;;;;;18.43;62.25;101100.59;5013989;28;20705;-81
2023/05/30 03:45:44;;;;;;;10.50;4.63;;;;;;;18.33;62.40;101107.25;5013630;28;20478;-80
2023/05/30 03:48:10;;;;;;;16.03;4.77;;;;;;;18.44;62.44;101104.91;5013324;28;20419;-81
2023/05/30 03:50:36;;;;;;;13.27;4.53;;;;;;;18.57;62.41;101107.56;5011160;28;20483;-81
2023/05/30 03:53:01;;;;;;;12.93;4.57;;;;;;;18.37;62.49;101113.00;5014129;28;20795;-81
2023/05/30 03:55:26;;;;;;;13.23;4.57;;;;;;;18.17;63.23;101120.28;5021465;28;20752;-82
2023/05/30 03:57:52;;;;;;;14.40;4.70;;;;;;;18.20;63.77;101109.94;5019898;28;20394;-82
2023/05/30 04:00:18;;;;;;;13.70;5.60;;;;;;;18.21;63.46;101119.66;5017319;28;20406;-82
2023/05/30 04:02:43;;;;;;;18.10;4.90;;;;;;;18.18;63.27;101113.88;5015429;28;20383;-80
2023/05/30 04:05:09;;;;;;;22.43;6.10;;;;;;;18.35;63.28;101115.09;5017033;28;20395;-80
2023/05/30 04:07:35;;;;;;;18.43;6.10;;;;;;;18.46;62.64;101116.28;5015247;28;21212;-80
2023/05/30 04:10:03;;;;;;;15.93;4.93;;;;;;;18.50;64.56;101118.31;5014013;28;21031;-80
2023/05/30 04:12:29;;;;;;;19.13;4.80;;;;;;;18.59;63.28;101116.22;5016155;28;20411;-81
2023/05/30 04:14:55;;;;;;;15.02;4.50;;;;;;;18.96;62.65;101118.31;5024142;28;20393;-82
2023/05/30 04:17:20;;;;;;;14.73;4.90;;;;;;;19.12;62.36;101114.31;5015353;28;20388;-79
2023/05/30 04:19:46;;;;;;;11.60;4.47;;;;;;;19.22;62.30;101120.03;5017899;28;20542;-80
2023/05/30 04:22:11;;;;;;;15.13;4.40;;;;;;;19.55;62.50;101122.47;5016038;28;20400;-81
2023/05/30 04:24:37;;;;;;;14.93;4.05;;;;;;;19.99;61.55;101126.03;5018405;28;20436;-81
2023/05/30 04:27:02;;;;;;;12.60;4.10;;;;;;;20.36;60.84;101125.22;5016308;28;20864;-81
2023/05/30 04:29:28;;;;;;;13.77;4.37;;;;;;;20.36;59.89;101125.22;5018129;28;20391;-81
2023/05/30 04:31:53;;;;;;;15.47;4.80;;;;;;;20.44;59.90;101125.75;5021311;28;20423;-81
2023/05/30 04:34:19;;;;;;;16.30;4.60;;;;;;;20.50;59.46;101113.25;5020338;28;20384;-80
2023/05/30 04:36:45;;;;;;;13.35;4.50;;;;;;;20.70;59.25;101115.72;5016900;28;20419;-81
2023/05/30 04:39:11;;;;;;;13.10;4.78;;;;;;;20.75;58.72;101113.16;5022388;28;20804;-80
2023/05/30 04:41:37;;;;;;;11.63;4.32;;;;;;;20.86;58.52;101110.75;5023935;28;20386;-80
2023/05/30 04:44:03;;;;;;;13.32;4.65;;;;;;;20.88;57.89;101117.53;5028449;28;20455;-80
2023/05/30 04:46:29;;;;;;;13.10;4.32;;;;;;;20.86;57.88;101116.94;5030042;28;20900;-78
2023/05/30 04:48:58;;;;;;;11.07;4.63;;;;;;;20.81;57.46;101124.88;5024588;28;20379;-79
2023/05/30 04:51:25;;;;;;;12.23;4.43;;;;;;;20.94;57.41;101121.19;5027682;28;20471;-79
2023/05/30 04:53:52;;;;;;;11.90;4.95;;;;;;;21.10;57.48;101127.81;5030833;28;20420;-79
2023/05/30 04:56:20;;;;;;;14.90;4.95;;;;;;;21.40;57.37;101127.78;5029802;28;20392;-80
2023/05/30 04:58:46;;;;;;;13.83;4.70;;;;;;;21.41;56.49;101128.56;5031019;28;20418;-80
2023/05/30 05:01:13;;;;;;;13.98;4.80;;;;;;;21.26;56.69;101127.16;5031321;28;20383;-80
2023/05/30 05:03:42;;;;;;;15.02;4.93;;;;;;;21.58;56.89;101135.78;5026588;28;20450;-81
2023/05/30 05:06:08;;;;;;;12.77;4.32;;;;;;;21.91;56.35;101137.13;5026929;28;20471;-80
2023/05/30 05:08:37;;;;;;;11.80;4.30;;;;;;;22.20;56.03;101139.91;5022649;28;20384;-81
2023/05/30 05:11:04;;;;;;;15.77;5.70;;;;;;;22.49;55.80;101140.81;5018183;28;20467;-81
2023/05/30 05:13:33;;;;;;;12.50;4.47;;;;;;;22.66;55.37;101140.06;5016686;28;20439;-79
2023/05/30 05:16:00;;;;;;;12.85;4.70;;;;;;;22.74;54.89;101136.16;5014989;28;20554;-80
2023/05/30 05:18:27;;;;;;;12.25;4.40;;;;;;;22.71;54.94;101132.88;5023669;28;20494;-80
2023/05/30 05:20:52;;;;;;;16.00;4.83;;;;;;;22.70;54.27;101136.63;5026412;28;20446;-79
2023/05/30 05:23:18;;;;;;;10.68;5.03;;;;;;;22.71;54.09;101137.47;5025938;28;20378;-81
2023/05/30 05:25:45;;;;;;;15.87;5.50;;;;;;;22.81;53.57;101134.94;5024686;28;20376;-81
2023/05/30 05:28:10;;;;;;;14.80;5.18;;;;;;;22.35;52.60;101150.25;5029566;28;20382;-80
2023/05/30 05:30:36;;;;;;;9.00;4.67;;;;;;;22.12;53.58;101153.75;5039538;28;20420;-80
2023/05/30 05:33:01;;;;;;;12.57;4.78;;;;;;;22.27;53.71;101158.69;5036872;28;20402;-80
2023/05/30 05:35:27;;;;;;;9.65;4.40;;;;;;;22.38;53.52;101146.22;5037099;28;20475;-81
2023/05/30 05:37:52;;;;;;;11.80;4.20;;;;;;;22.20;53.21;101142.63;5036502;28;20382;-79
2023/05/30 05:40:19;;;;;;;9.67;4.07;;;;;;;22.29;53.60;101140.38;5037045;28;20389;-83
2023/05/30 05:42:44;;;;;;;10.70;4.97;;;;;;;22.14;52.92;101141.66;5039674;28;20384;-81
2023/05/30 05:45:10;;;;;;;11.37;4.47;;;;;;;22.02;53.21;101145.41;5035318;28;20414;-80
2023/05/30 05:47:35;;;;;;;11.68;4.72;;;;;;;22.03;53.82;101147.91;5027187;28;20390;-80
2023/05/30 05:50:01;;;;;;;9.23;4.37;;;;;;;22.27;53.84;101153.28;5035941;28;20417;-81
2023/05/30 05:52:27;;;;;;;10.70;4.80;;;;;;;22.40;53.76;101144.94;5035591;28;20465;-80
2023/05/30 05:54:52;;;;;;;10.60;4.60;;;;;;;22.56;53.34;101147.94;5036853;28;20382;-81
2023/05/30 05:57:18;;;;;;;9.30;4.43;;;;;;;22.31;53.32;101157.19;5036529;28;20380;-82
2023/05/30 05:59:44;;;;;;;12.32;4.55;;;;;;;22.40;53.17;101146.81;5036110;28;20460;-80
2023/05/30 06:02:10;;;;;;;10.30;4.43;;;;;;;22.41;53.52;101159.28;5034829;28;20390;-81
2023/05/30 06:04:36;;;;;;;11.90;5.55;;;;;;;22.55;53.35;101151.72;5035945;28;20802;-82
2023/05/30 06:07:02;;;;;;;14.97;5.07;;;;;;;22.77;53.09;101155.41;5040343;28;20378;-81
2023/05/30 06:09:31;;;;;;;13.23;4.72;;;;;;;22.89;52.65;101164.28;5046971;28;20396;-80
2023/05/30 06:11:57;;;;;;;8.15;4.80;;;;;;;23.03;52.24;101162.13;5033550;28;20402;-79
2023/05/30 06:14:23;;;;;;;10.85;4.90;;;;;;;22.89;52.13;101163.47;5033291;28;20501;-80
2023/05/30 06:16:49;;;;;;;10.25;4.50;;;;;;;22.99;52.08;101163.66;5033965;28;20934;-81
2023/05/30 06:19:14;;;;;;;10.13;4.00;;;;;;;22.82;51.34;101171.72;5036268;28;20378;-82
2023/05/30 06:21:40;;;;;;;10.98;4.63;;;;;;;22.80;51.38;101171.16;5026987;28;20382;-82
2023/05/30 06:24:06;;;;;;;7.87;4.30;;;;;;;23.12;51.64;101183.38;5026145;28;20745;-82
2023/05/30 06:26:32;;;;;;;9.30;4.40;;;;;;;23.25;51.18;101175.81;5023237;28;20484;-81
2023/05/30 06:28:57;;;;;;;8.25;4.20;;;;;;;23.34;50.29;101172.72;5031077;28;20713;-81
2023/05/30 06:31:23;;;;;;;7.13;4.30;;;;;;;23.31;50.44;101176.72;5015722;28;20384;-83
2023/05/30 06:33:48;;;;;;;11.77;5.47;;;;;;;23.53;50.57;101179.50;4996398;28;20414;-82
2023/05/30 06:36:14;;;;;;;8.45;4.18;;;;;;;23.48;49.43;101180.25;5005088;28;20391;-82
2023/05/30 06:38:40;;;;;;;9.20;4.43;;;;;;;23.40;50.14;101177.94;5018384;28;20380;-84
2023/05/30 06:41:05;;;;;;;7.13;4.33;;;;;;;23.27;49.92;101164.75;5014070;28;20884;-85
2023/05/30 06:43:31;;;;;;;10.27;4.15;;;;;;;23.24;49.86;101166.03;5014707;28;20459;-81
2023/05/30 06:45:56;;;;;;;9.97;4.10;;;;;;;23.12;50.06;101164.47;5014681;28;20412;-82
2023/05/30 06:48:22;;;;;;;8.07;4.47;;;;;;;23.12;50.29;101167.16;5014203;28;20886;-81
2023/05/30 06:50:47;;;;;;;7.10;4.23;;;;;;;23.45;50.05;101158.28;5014426;28;20407;-81
2023/05/30 06:53:13;;;;;;;7.63;4.30;;;;;;;23.59;49.61;101156.91;5014228;28;20502;-82
2023/05/30 06:55:38;;;;;;;11.30;4.83;;;;;;;23.60;49.98;101146.88;5015318;28;20392;-81
2023/05/30 06:58:07;;;;;;;8.02;4.40;;;;;;;23.85;50.00;101147.28;5016223;28;20388;-82
2023/05/30 07:00:32;;;;;;;10.70;4.40;;;;;;;24.01;49.86;101155.66;5014746;28;20795;-81
2023/05/30 07:03:00;;;;;;;9.07;4.47;;;;;;;23.88;48.87;101143.28;5016080;28;20415;-83
2023/05/30 07:05:26;;;;;;;7.82;3.90;;;;;;;24.29;49.83;101143.00;5015878;28;20391;-82
2023/05/30 07:07:51;;;;;;;10.95;3.95;;;;;;;24.19;48.32;101144.53;5012741;28;20376;-82
2023/05/30 07:10:17;;;;;;;9.30;4.50;;;;;;;24.05;48.24;101141.34;5012179;28;20373;-81
2023/05/30 07:12:42;;;;;;;8.07;4.53;;;;;;;24.08;48.09;101131.09;5013059;28;20415;-81
2023/05/30 07:15:09;;;;;;;9.97;4.50;;;;;;;24.33;47.34;101136.84;5014930;28;20752;-81
2023/05/30 07:17:34;;;;;;;11.47;4.90;;;;;;;24.48;47.30;101136.22;5013626;28;20376;-80
2023/05/30 07:20:00;;;;;;;8.65;4.47;;;;;;;24.73;47.12;101137.63;5015009;28;20875;-82
2023/05/30 07:22:26;;;;;;;12.00;4.37;;;;;;;24.75;47.29;101133.56;5014852;28;20447;-81
2023/05/30 07:24:51;;;;;;;5.95;3.88;;;;;;;24.89;46.92;101134.00;5014103;28;20380;-82
2023/05/30 07:27:18;;;;;;;9.57;4.13;;;;;;;25.08;47.34;101128.19;5014967;28;20384;-81
2023/05/30 07:29:43;;;;;;;14.88;4.50;;;;;;;25.19;46.88;101132.63;5029541;28;20416;-82
2023/05/30 07:32:12;;;;;;;10.07;6.20;;;;;;;25.43;47.39;101143.22;5012165;28;20467;-81
2023/05/30 07:34:38;;;;;;;11.50;4.17;;;;;;;25.49;46.39;101136.72;5013719;28;20486;-81
2023/05/30 07:37:04;;;;;;;8.98;4.30;;;;;;;25.67;45.93;101143.66;5012702;28;20443;-81
2023/05/30 07:39:30;;;;;;;8.13;3.70;;;;;;;25.66;46.25;101147.44;4995443;28;20384;-81
2023/05/30 07:41:55;;;;;;;10.00;4.77;;;;;;;25.70;45.99;101135.00;5012542;28;20369;-81
2023/05/30 07:44:21;;;;;;;9.60;4.73;;;;;;;25.87;45.64;101146.50;5012278;28;20372;-81
2023/05/30 07:46:47;;;;;;;8.32;4.32;;;;;;;26.00;45.59;101139.84;5012882;28;20407;-82
2023/05/30 07:49:13;;;;;;;10.95;4.55;;;;;;;26.10;45.24;101141.78;5013558;28;20450;-81
2023/05/30 07:51:38;;;;;;;8.13;4.63;;;;;;;26.19;44.96;101142.09;5014062;28;20392;-80
2023/05/30 07:54:04;;;;;;;9.93;4.18;;;;;;;26.26;44.60;101145.38;5012937;28;20470;-80
2023/05/30 07:56:29;;;;;;;9.50;4.10;;;;;;;26.34;44.64;101139.44;5022599;28;20396;-82
2023/05/30 07:58:55;;;;;;;9.37;4.13;;;;;;;26.57;44.13;101137.34;5014270;28;20406;-81
2023/05/30 08:01:20;;;;;;;9.83;4.53;;;;;;;26.59;44.38;101130.56;5013264;28;20880;-81
2023/05/30 08:03:46;;;;;;;12.68;5.00;;;;;;;26.58;43.65;101137.09;5011926;28;20381;-81
2023/05/30 08:06:12;;;;;;;10.50;4.80;;;;;;;26.69;43.48;101140.69;5014414;28;20828;-80
2023/05/30 08:08:37;;;;;;;10.52;4.90;;;;;;;26.65;43.36;101128.69;5012980;28;20379;-83
2023/05/30 08:11:03;;;;;;;8.38;4.60;;;;;;;26.70;43.54;101134.97;5027475;28;20453;-81
2023/05/30 08:13:30;;;;;;;7.65;4.68;;;;;;;26.88;42.80;101138.25;5018925;28;20499;-83
2023/05/30 08:15:55;;;;;;;9.90;4.07;;;;;;;26.80;42.87;101134.19;5019772;28;20447;-81
2023/05/30 08:18:21;;;;;;;10.90;4.32;;;;;;;26.83;43.17;101130.09;5012620;28;20376;-81
2023/05/30 08:20:47;;;;;;;10.50;4.67;;;;;;;26.83;43.40;101130.94;5013469;28;20392;-82
2023/05/30 08:23:13;;;;;;;8.40;4.07;;;;;;;26.94;42.47;101126.31;5012749;28;20398;-82
2023/05/30 08:25:42;;;;;;;9.23;4.47;;;;;;;27.00;42.23;101136.13;5013576;28;20463;-80
2023/05/30 08:28:10;;;;;;;12.15;5.18;;;;;;;27.19;42.29;101121.97;5014114;28;20417;-82
2023/05/30 08:30:37;;;;;;;7.32;3.92;;;;;;;27.17;42.40;101119.56;5013660;28;20396;-83
2023/05/30 08:33:02;;;;;;;12.63;4.45;;;;;;;27.07;42.45;101122.25;5013347;28;20423;-81
2023/05/30 08:35:28;;;;;;;7.38;3.70;;;;;;;27.26;42.15;101112.50;5013433;28;20803;-81
2023/05/30 08:37:57;;;;;;;10.67;4.20;;;;;;;27.36;42.21;101119.03;5016567;28;20461;-82
2023/05/30 08:40:25;;;;;;;9.23;4.05;;;;;;;27.50;41.99;101114.66;5015270;28;20467;-82
2023/05/30 08:42:51;;;;;;;6.65;3.80;;;;;;;27.63;41.74;101116.00;5015694;28;20404;-82
2023/05/30 08:45:19;;;;;;;6.37;3.70;;;;;;;27.69;41.90;101117.63;5016732;28;20439;-80
2023/05/30 08:47:45;;;;;;;7.38;3.75;;;;;;;27.68;41.39;101117.88;5015674;28;20460;-82
2023/05/30 08:50:12;;;;;;;6.65;3.35;;;;;;;27.64;41.48;101123.91;5016840;28;20883;-82
2023/05/30 08:52:40;;;;;;;5.60;3.27;;;;;;;27.76;41.20;101118.16;5015157;28;20938;-81
2023/05/30 08:55:13;;;;;;;8.23;3.50;;;;;;;27.88;41.26;101123.31;5016163;28;20395;-80
2023/05/30 08:57:51;;;;;;;7.97;3.83;;;;;;;28.05;40.92;101125.72;5016787;28;20475;-83
2023/05/30 09:00:17;;;;;;;8.88;3.45;;;;;;;28.07;40.43;101112.63;5017457;28;20384;-81
2023/05/30 09:02:49;;;;;;;6.03;3.40;;;;;;;28.06;40.09;101119.19;5020335;28;20479;-81
2023/05/30 09:05:17;;;;;;;9.30;3.55;;;;;;;28.18;40.45;101113.41;5018303;28;20474;-81
2023/05/30 09:07:43;;;;;;;8.13;3.53;;;;;;;28.23;39.43;101116.13;5017146;28;20384;-80
2023/05/30 09:10:11;;;;;;;7.97;2.97;;;;;;;28.20;38.50;101111.25;5016497;28;20890;-80
2023/05/30 09:12:36;;;;;;;5.00;2.75;;;;;;;28.29;38.44;101120.47;5031238;28;20430;-81
2023/05/30 09:15:03;;;;;;;8.90;3.50;;;;;;;28.41;38.03;101110.06;5015971;28;20376;-80
2023/05/30 09:17:28;;;;;;;3.63;2.60;;;;;;;28.58;37.62;101114.38;5017957;28;20380;-80
2023/05/30 09:19:54;;;;;;;7.07;3.23;;;;;;;28.66;37.54;101111.03;5016582;28;21079;-81
2023/05/30 09:22:19;;;;;;;8.80;3.33;;;;;;;28.62;38.21;101112.69;5016833;28;20475;-81
2023/05/30 09:25:03;;;;;;;6.03;3.30;;;;;;;28.54;38.63;101107.81;5016507;28;20376;-81
2023/05/30 09:27:35;;;;;;;5.07;2.95;;;;;;;28.56;38.81;101100.19;5016384;28;20388;-80
2023/05/30 09:30:08;;;;;;;6.80;3.22;;;;;;;28.62;38.93;101099.06;5016364;28;20467;-81
2023/05/30 09:32:37;;;;;;;6.03;2.80;;;;;;;28.58;38.26;101095.28;5032206;28;20432;-80
2023/05/30 09:35:09;;;;;;;7.97;3.57;;;;;;;28.60;38.81;101104.78;5015930;28;20403;-80
2023/05/30 09:37:38;;;;;;;3.70;2.97;;;;;;;28.63;39.22;101094.41;5015983;28;20438;-79
2023/05/30 09:40:06;;;;;;;8.00;3.28;;;;;;;28.60;39.26;101082.16;5015462;28;20710;-81
2023/05/30 09:42:58;;;;;;;10.52;3.75;;;;;;;28.83;39.54;101091.56;5014721;28;20429;-81
2023/05/30 09:45:24;;;;;;;6.80;3.38;;;;;;;28.83;39.44;101088.84;5015087;28;20491;-81
2023/05/30 09:47:52;;;;;;;8.90;3.60;;;;;;;28.89;39.29;101089.63;5014898;28;20384;-80
2023/05/30 09:50:23;;;;;;;6.53;3.40;;;;;;;28.87;39.69;101078.97;5019636;28;20744;-80
2023/05/30 09:52:51;;;;;;;5.28;3.10;;;;;;;28.84;39.63;101074.09;5018543;28;20432;-80
2023/05/30 09:55:18;;;;;;;6.47;3.00;;;;;;;28.81;39.51;101082.03;5033708;28;20386;-80
2023/05/30 09:57:51;;;;;;;6.57;3.07;;;;;;;28.77;39.17;101076.31;5030529;28;20408;-79
2023/05/30 10:00:22;;;;;;;8.15;3.58;;;;;;;28.98;39.31;101077.00;5014926;28;20384;-79
2023/05/30 10:02:55;;;;;;;5.25;3.08;;;;;;;29.05;39.00;101068.47;5015919;28;20368;-78
2023/05/30 10:05:23;;;;;;;5.88;3.10;;;;;;;28.98;38.71;101066.88;5031066;28;20399;-79
2023/05/30 10:07:51;;;;;;;6.72;3.20;;;;;;;28.88;38.56;101052.50;5018340;28;20383;-78
2023/05/30 10:10:18;;;;;;;8.83;3.60;;;;;;;28.88;38.62;101063.41;5019909;28;20728;-81
2023/05/30 10:12:48;;;;;;;12.45;3.30;;;;;;;28.95;38.79;101052.97;5017634;28;20416;-80
2023/05/30 10:15:14;;;;;;;6.85;3.15;;;;;;;29.07;38.89;101050.69;5014281;28;20712;-80
2023/05/30 10:17:47;;;;;;;5.22;3.28;;;;;;;29.14;38.65;101042.19;5013959;28;20514;-79
2023/05/30 10:20:15;;;;;;;3.50;2.83;;;;;;;29.24;38.77;101049.50;5015529;28;20376;-78
2023/05/30 10:22:46;;;;;;;6.80;3.30;;;;;;;29.19;38.38;101046.81;5016217;28;20402;-78
2023/05/30 10:25:15;;;;;;;8.50;3.60;;;;;;;29.21;38.72;101052.78;5016031;28;20381;-79
2023/05/30 10:27:48;;;;;;;8.15;3.28;;;;;;;29.28;38.37;101039.63;5030022;28;20498;-79
2023/05/30 10:30:21;;;;;;;8.27;3.25;;;;;;;29.37;38.07;101040.63;5016116;28;20380;-79
2023/05/30 10:32:59;;;;;;;7.65;2.92;;;;;;;29.20;37.86;101030.13;5017419;28;20435;-81
2023/05/30 10:35:26;;;;;;;7.82;3.25;;;;;;;29.32;38.10;101027.84;5016086;28;20395;-79
2023/05/30 10:37:52;;;;;;;5.95;3.17;;;;;;;29.27;37.88;101027.09;5013791;28;20392;-80
2023/05/30 10:40:34;;;;;;;5.10;3.20;;;;;;;29.28;38.01;101029.53;5017933;28;20441;-82
2023/05/30 10:43:03;;;;;;;5.75;2.90;;;;;;;29.46;37.54;101030.72;5018846;28;20477;-79
2023/05/30 10:45:37;;;;;;;5.05;3.20;;;;;;;29.48;37.84;101030.44;5018654;28;20404;-79
2023/05/30 10:48:29;;;;;;;6.05;3.05;;;;;;;29.64;37.64;101026.41;5016226;28;20396;-79
2023/05/30 10:50:58;;;;;;;4.50;2.80;;;;;;;29.69;37.33;101025.53;4995695;28;20404;-79
2023/05/30 10:53:24;;;;;;;5.05;3.25;;;;;;;29.52;37.28;101026.00;5017596;28;20420;-80
2023/05/30 10:55:50;;;;;;;5.17;3.00;;;;;;;29.48;37.23;101014.03;5016068;28;20732;-79
2023/05/30 10:58:37;;;;;;;6.20;3.13;;;;;;;29.46;37.45;101017.06;5014888;28;20809;-79
2023/05/30 11:01:25;;;;;;;5.72;3.00;;;;;;;29.36;37.53;101012.50;5015144;28;20388;-81
2023/05/30 11:04:14;;;;;;;5.55;2.92;;;;;;;29.43;37.82;101003.97;5011624;28;20465;-80
2023/05/30 11:06:46;;;;;;;4.90;2.87;;;;;;;29.73;38.27;101005.53;4998066;28;20381;-81
2023/05/30 11:09:16;;;;;;;4.68;2.70;;;;;;;29.84;36.71;101002.72;5002245;28;20388;-81
2023/05/30 11:11:53;;;;;;;4.80;2.80;;;;;;;29.76;36.59;100995.97;5015568;28;20380;-80
2023/05/30 11:14:25;;;;;;;5.00;3.20;;;;;;;29.85;36.76;100993.38;5014387;28;20488;-79
2023/05/30 11:16:54;;;;;;;5.53;2.83;;;;;;;29.86;36.79;100990.38;5014424;28;20395;-81
2023/05/30 11:19:20;;;;;;;5.73;2.73;;;;;;;30.00;36.65;100990.47;5014996;28;20380;-80
2023/05/30 11:22:12;;;;;;;5.25;3.17;;;;;;;29.98;36.19;100980.91;5013690;28;20375;-79
2023/05/30 11:24:38;;;;;;;5.53;3.00;;;;;;;29.97;36.45;100985.59;5013344;28;20784;-79